createdAt,value
2019-03-15T00:02:02.086Z,99.31
2019-03-15T00:04:32.404Z,99.86
2019-03-15T00:07:02.503Z,99.03
2019-03-15T00:09:31.627Z,99.21
2019-03-15T00:12:00.709Z,99.54
2019-03-15T00:14:29.936Z,98.99
2019-03-15T00:16:59.153Z,99.35
2019-03-15T00:19:28.412Z,98.64
2019-03-15T00:21:57.475Z,99.20
2019-03-15T00:24:27.917Z,98.67
2019-03-15T00:26:56.999Z,98.24
2019-03-15T00:29:26.144Z,97.61
2019-03-15T00:31:55.393Z,98.10
2019-03-15T00:34:24.457Z,98.02
2019-03-15T00:36:53.694Z,97.88
2019-03-15T00:39:22.903Z,97.99
2019-03-15T00:41:52.278Z,97.78
2019-03-15T00:44:21.578Z,98.23
2019-03-15T00:46:50.793Z,98.10
2019-03-15T00:49:20.055Z,98.55
2019-03-15T00:51:49.515Z,98.37
2019-03-15T00:54:18.867Z,98.48
2019-03-15T00:56:47.986Z,98.63
2019-03-15T00:59:17.235Z,98.21
2019-03-15T01:01:49.693Z,98.45
2019-03-15T01:04:18.880Z,98.81
2019-03-15T01:06:48.045Z,98.46
2019-03-15T01:09:17.519Z,98.70
2019-03-15T01:11:46.674Z,98.92
2019-03-15T01:14:15.950Z,98.75
2019-03-15T01:16:44.944Z,98.78
2019-03-15T01:19:14.015Z,98.70
2019-03-15T01:21:43.044Z,97.93
2019-03-15T01:24:12.175Z,97.14
2019-03-15T01:26:41.173Z,97.42
2019-03-15T01:29:12.376Z,97.46
2019-03-15T01:31:41.392Z,97.29
2019-03-15T01:34:10.543Z,97.22
2019-03-15T01:36:39.686Z,96.82
2019-03-15T01:39:08.698Z,96.78
2019-03-15T01:41:37.840Z,97.61
2019-03-15T01:44:07.007Z,97.32
2019-03-15T01:46:36.108Z,97.21
2019-03-15T01:49:05.325Z,96.84
2019-03-15T01:51:34.393Z,96.70
2019-03-15T01:54:03.510Z,96.95
2019-03-15T01:56:32.553Z,96.46
2019-03-15T01:59:01.606Z,96.64
2019-03-15T02:01:30.861Z,96.81
2019-03-15T02:04:00.169Z,97.06
2019-03-15T02:06:29.312Z,96.79
2019-03-15T02:08:58.420Z,96.95
2019-03-15T02:11:27.418Z,96.59
2019-03-15T02:13:56.493Z,96.45
2019-03-15T02:16:25.596Z,96.37
2019-03-15T02:18:56.278Z,96.59
2019-03-15T02:21:27.133Z,96.66
2019-03-15T02:23:56.157Z,97.24
2019-03-15T02:26:25.224Z,97.46
2019-03-15T02:28:54.376Z,97.61
2019-03-15T02:31:23.531Z,97.72
2019-03-15T02:33:52.587Z,97.62
2019-03-15T02:36:23.426Z,97.44
2019-03-15T02:38:53.908Z,96.72
2019-03-15T02:41:23.231Z,97.46
2019-03-15T02:43:52.322Z,96.72
2019-03-15T02:46:21.373Z,97.25
2019-03-15T02:48:50.468Z,97.69
2019-03-15T02:51:19.502Z,96.79
2019-03-15T02:53:48.682Z,96.78
2019-03-15T02:56:17.828Z,96.55
2019-03-15T02:58:46.917Z,96.66
2019-03-15T03:01:15.978Z,96.36
2019-03-15T03:03:45.102Z,95.76
2019-03-15T03:06:14.119Z,95.28
2019-03-15T03:08:45.828Z,95.54
2019-03-15T03:11:14.833Z,95.20
2019-03-15T03:13:44.336Z,95.66
2019-03-15T03:16:13.522Z,95.44
2019-03-15T03:18:42.603Z,95.78
2019-03-15T03:21:11.630Z,94.90
2019-03-15T03:23:41.794Z,95.16
2019-03-15T03:26:10.932Z,95.82
2019-03-15T03:28:39.989Z,95.12
2019-03-15T03:31:09.047Z,95.59
2019-03-15T03:33:40.520Z,95.37
2019-03-15T03:36:08.971Z,95.26
2019-03-15T03:38:39.114Z,95.40
2019-03-15T03:41:08.233Z,95.22
2019-03-15T03:43:37.308Z,94.43
2019-03-15T03:46:07.550Z,93.99
2019-03-15T03:48:36.648Z,94.07
2019-03-15T03:51:05.789Z,94.57
2019-03-15T03:53:34.819Z,94.28
2019-03-15T03:56:07.598Z,94.55
2019-03-15T03:58:40.968Z,94.21
2019-03-15T04:01:10.068Z,94.38
2019-03-15T04:03:40.233Z,93.96
2019-03-15T04:06:09.356Z,94.59
2019-03-15T04:08:38.497Z,94.69
2019-03-15T04:11:07.553Z,94.04
2019-03-15T04:13:36.793Z,94.22
2019-03-15T04:16:08.172Z,94.24
2019-03-15T04:18:37.262Z,94.10
2019-03-15T04:21:06.331Z,93.55
2019-03-15T04:23:38.069Z,94.20
2019-03-15T04:26:06.339Z,94.43
2019-03-15T04:28:35.430Z,94.91
2019-03-15T04:31:04.630Z,94.61
2019-03-15T04:33:33.700Z,94.69
2019-03-15T04:36:02.797Z,94.73
2019-03-15T04:38:31.914Z,95.10
2019-03-15T04:41:00.963Z,95.22
2019-03-15T04:43:30.116Z,94.50
2019-03-15T04:45:59.200Z,95.36
2019-03-15T04:48:30.273Z,95.69
2019-03-15T04:50:59.388Z,95.74
2019-03-15T04:53:30.250Z,96.32
2019-03-15T04:55:59.333Z,95.70
2019-03-15T04:58:28.418Z,96.24
2019-03-15T05:00:57.479Z,96.58
2019-03-15T05:03:28.697Z,96.15
2019-03-15T05:06:03.447Z,96.80
2019-03-15T05:08:32.688Z,97.84
2019-03-15T05:11:03.749Z,98.60
2019-03-15T05:13:34.243Z,99.72
2019-03-15T05:16:03.369Z,99.53
2019-03-15T05:18:33.658Z,99.58
2019-03-15T05:21:02.752Z,99.49
2019-03-15T05:23:31.797Z,99.42
2019-03-15T05:26:00.919Z,99.59
2019-03-15T05:28:32.054Z,99.57
2019-03-15T05:31:01.144Z,100.00
2019-03-15T05:33:31.966Z,100.00
2019-03-15T05:36:01.079Z,100.00
2019-03-15T05:38:30.191Z,100.00
2019-03-15T05:40:59.316Z,100.00
2019-03-15T05:43:28.373Z,100.00
2019-03-15T05:45:57.447Z,100.00
2019-03-15T05:48:26.556Z,100.00
2019-03-15T05:50:55.672Z,100.00
2019-03-15T05:53:24.760Z,100.00
2019-03-15T05:55:53.748Z,100.00
2019-03-15T05:58:24.998Z,100.00
2019-03-15T06:00:56.358Z,100.00
2019-03-15T06:03:25.421Z,100.00
2019-03-15T06:05:56.671Z,100.00
2019-03-15T06:08:27.519Z,100.00
2019-03-15T06:10:56.490Z,100.00
2019-03-15T06:13:25.661Z,100.00
2019-03-15T06:15:58.122Z,100.00
2019-03-15T06:18:28.753Z,100.00
2019-03-15T06:21:01.502Z,100.00
2019-03-15T06:23:30.614Z,100.00
2019-03-15T06:25:59.690Z,100.00
2019-03-15T06:28:28.736Z,100.00
2019-03-15T06:30:57.767Z,100.00
2019-03-15T06:33:28.700Z,100.00
2019-03-15T06:35:57.647Z,100.00
2019-03-15T06:38:26.803Z,100.00
2019-03-15T06:40:55.907Z,100.00
2019-03-15T06:43:27.080Z,100.00
2019-03-15T06:45:56.132Z,100.00
2019-03-15T06:48:25.399Z,100.00
2019-03-15T06:50:54.510Z,100.00
2019-03-15T06:53:25.413Z,100.00
2019-03-15T06:55:54.493Z,100.00
2019-03-15T06:58:24.756Z,100.00
2019-03-15T07:00:57.354Z,100.00
2019-03-15T07:03:26.584Z,100.00
2019-03-15T07:05:55.674Z,100.00
2019-03-15T07:08:26.366Z,100.00
2019-03-15T07:10:58.138Z,100.00
2019-03-15T07:13:27.332Z,100.00
2019-03-15T07:15:57.472Z,100.00
2019-03-15T07:18:28.853Z,100.00
2019-03-15T07:20:59.470Z,100.00
2019-03-15T07:23:28.536Z,100.00
2019-03-15T07:25:57.558Z,100.00
2019-03-15T07:28:28.057Z,100.00
2019-03-15T07:30:57.227Z,100.00
2019-03-15T07:33:26.340Z,99.53
2019-03-15T07:35:55.655Z,99.55
2019-03-15T07:38:24.960Z,99.26
2019-03-15T07:40:53.975Z,100.00
2019-03-15T07:43:23.172Z,100.00
2019-03-15T07:45:52.261Z,100.00
2019-03-15T07:48:22.999Z,100.00
2019-03-15T07:50:52.324Z,100.00
2019-03-15T07:53:21.373Z,100.00
2019-03-15T07:55:50.456Z,99.61
2019-03-15T07:58:19.548Z,99.90
2019-03-15T08:00:48.675Z,99.91
2019-03-15T08:03:17.770Z,99.30
2019-03-15T08:05:50.625Z,99.89
2019-03-15T08:08:19.717Z,99.43
2019-03-15T08:10:48.725Z,98.43
2019-03-15T08:13:17.845Z,98.53
2019-03-15T08:15:47.095Z,99.45
2019-03-15T08:18:16.118Z,100.00
2019-03-15T08:20:48.326Z,98.15
2019-03-15T08:23:19.730Z,97.74
2019-03-15T08:25:50.416Z,96.90
2019-03-15T08:28:21.096Z,96.94
2019-03-15T08:30:50.149Z,97.62
2019-03-15T08:33:21.486Z,98.23
2019-03-15T08:35:50.569Z,99.33
2019-03-15T08:38:21.935Z,99.82
2019-03-15T08:40:51.128Z,100.00
2019-03-15T08:43:20.285Z,99.95
2019-03-15T08:45:49.445Z,100.00
2019-03-15T08:48:18.498Z,99.15
2019-03-15T08:50:47.621Z,99.89
2019-03-15T08:53:16.724Z,98.87
2019-03-15T08:55:45.850Z,99.31
2019-03-15T08:58:21.655Z,100.00
2019-03-15T09:00:45.888Z,100.00
2019-03-15T09:03:27.078Z,100.00
2019-03-15T09:05:49.295Z,100.00
2019-03-15T09:08:23.242Z,100.00
2019-03-15T09:10:52.416Z,100.00
2019-03-15T09:13:26.061Z,99.63
2019-03-15T09:15:55.110Z,99.55
2019-03-15T09:18:25.620Z,99.19
2019-03-15T09:20:54.737Z,99.78
2019-03-15T09:23:24.178Z,99.10
2019-03-15T09:25:53.231Z,98.51
2019-03-15T09:28:22.399Z,98.37
2019-03-15T09:30:51.465Z,98.65
2019-03-15T09:33:20.486Z,98.93
2019-03-15T09:35:49.540Z,98.36
2019-03-15T09:38:18.574Z,97.85
2019-03-15T09:40:49.323Z,98.15
2019-03-15T09:43:18.356Z,98.47
2019-03-15T09:45:47.456Z,98.40
2019-03-15T09:48:16.563Z,98.35
2019-03-15T09:50:51.063Z,97.82
2019-03-15T09:53:18.717Z,98.20
2019-03-15T09:55:47.788Z,98.71
2019-03-15T09:58:18.055Z,98.11
2019-03-15T10:00:47.142Z,98.48
2019-03-15T10:03:22.248Z,97.30
2019-03-15T10:05:49.637Z,97.39
2019-03-15T10:08:23.280Z,97.03
2019-03-15T10:10:50.857Z,97.29
2019-03-15T10:13:19.932Z,96.93
2019-03-15T10:15:49.078Z,97.19
2019-03-15T10:18:18.118Z,96.64
2019-03-15T10:20:47.308Z,97.17
2019-03-15T10:23:16.316Z,97.24
2019-03-15T10:25:51.084Z,97.86
2019-03-15T10:28:18.237Z,97.78
2019-03-15T10:30:47.307Z,97.37
2019-03-15T10:33:16.353Z,97.52
2019-03-15T10:35:45.428Z,97.27
2019-03-15T10:38:16.672Z,98.07
2019-03-15T10:40:45.232Z,98.46
2019-03-15T10:43:14.278Z,97.74
2019-03-15T10:45:43.442Z,98.10
2019-03-15T10:48:24.640Z,97.62
2019-03-15T10:50:45.506Z,97.47
2019-03-15T10:53:14.576Z,97.64
2019-03-15T10:55:43.624Z,97.42
2019-03-15T10:58:14.775Z,97.29
2019-03-15T11:00:43.817Z,97.28
2019-03-15T11:03:13.291Z,97.23
2019-03-15T11:05:42.424Z,96.87
2019-03-15T11:08:11.459Z,97.95
2019-03-15T11:10:40.551Z,97.70
2019-03-15T11:13:09.597Z,97.15
2019-03-15T11:15:40.495Z,97.85
2019-03-15T11:18:09.553Z,97.78
2019-03-15T11:20:38.605Z,97.89
2019-03-15T11:23:07.658Z,98.19
2019-03-15T11:25:38.497Z,97.61
2019-03-15T11:28:07.611Z,97.99
2019-03-15T11:30:36.609Z,97.34
2019-03-15T11:33:05.696Z,98.36
2019-03-15T11:35:34.777Z,98.33
2019-03-15T11:38:05.957Z,97.94
2019-03-15T11:40:37.905Z,97.89
2019-03-15T11:43:05.887Z,97.44
2019-03-15T11:45:35.066Z,97.90
2019-03-15T11:48:08.675Z,97.71
2019-03-15T11:50:38.331Z,97.51
2019-03-15T11:53:07.408Z,97.07
2019-03-15T11:55:36.528Z,97.10
2019-03-15T11:58:06.786Z,97.75
2019-03-15T12:00:35.804Z,97.98
2019-03-15T12:03:04.971Z,98.23
2019-03-15T12:05:34.016Z,97.85
2019-03-15T12:08:05.161Z,98.78
2019-03-15T12:10:34.200Z,98.38
2019-03-15T12:13:03.312Z,98.94
2019-03-15T12:15:32.398Z,99.00
2019-03-15T12:18:01.488Z,98.51
2019-03-15T12:20:30.537Z,98.70
2019-03-15T12:22:59.596Z,98.48
2019-03-15T12:25:31.298Z,98.43
2019-03-15T12:27:59.418Z,98.96
2019-03-15T12:30:28.511Z,98.99
2019-03-15T12:32:57.571Z,98.43
2019-03-15T12:35:27.636Z,98.37
2019-03-15T12:37:56.690Z,99.18
2019-03-15T12:40:25.774Z,98.80
2019-03-15T12:42:54.855Z,99.28
2019-03-15T12:45:23.959Z,99.90
2019-03-15T12:47:53.017Z,99.24
2019-03-15T12:50:22.102Z,99.48
2019-03-15T12:52:51.229Z,99.26
2019-03-15T12:55:20.347Z,99.02
2019-03-15T12:57:49.804Z,98.77
2019-03-15T13:00:18.932Z,97.77
2019-03-15T13:02:47.995Z,97.49
2019-03-15T13:05:17.084Z,97.42
2019-03-15T13:07:46.144Z,97.54
2019-03-15T13:10:15.209Z,98.44
2019-03-15T13:12:44.342Z,98.14
2019-03-15T13:15:13.706Z,98.27
2019-03-15T13:17:42.886Z,98.97
2019-03-15T13:20:12.091Z,99.05
2019-03-15T13:22:43.286Z,99.30
2019-03-15T13:25:13.496Z,98.83
2019-03-15T13:27:42.699Z,98.93
2019-03-15T13:30:11.844Z,99.33
2019-03-15T13:32:40.972Z,98.65
2019-03-15T13:35:10.115Z,97.94
2019-03-15T13:37:42.499Z,98.54
2019-03-15T13:40:10.088Z,98.40
2019-03-15T13:42:39.288Z,98.28
2019-03-15T13:45:09.844Z,98.01
2019-03-15T13:47:38.987Z,98.27
2019-03-15T13:50:09.235Z,98.20
2019-03-15T13:52:40.252Z,97.85
2019-03-15T13:55:09.328Z,97.80
2019-03-15T13:57:38.335Z,97.95
2019-03-15T14:00:08.536Z,97.74
2019-03-15T14:02:38.791Z,98.12
2019-03-15T14:05:08.142Z,98.01
2019-03-15T14:07:37.284Z,98.43
2019-03-15T14:10:07.112Z,98.12
2019-03-15T14:12:36.164Z,98.00
2019-03-15T14:15:07.065Z,97.99
2019-03-15T14:17:36.185Z,98.21
2019-03-15T14:20:08.506Z,97.96
2019-03-15T14:22:37.588Z,98.32
2019-03-15T14:25:07.511Z,97.91
2019-03-15T14:27:38.147Z,97.68
2019-03-15T14:30:07.682Z,97.57
2019-03-15T14:32:36.805Z,97.72
2019-03-15T14:35:08.142Z,97.81
2019-03-15T14:37:38.702Z,98.39
2019-03-15T14:40:07.804Z,98.32
2019-03-15T14:42:37.109Z,98.00
2019-03-15T14:45:07.067Z,98.50
2019-03-15T14:47:36.092Z,98.24
2019-03-15T14:50:06.500Z,97.53
2019-03-15T14:52:37.593Z,98.46
2019-03-15T14:55:06.892Z,98.64
2019-03-15T14:57:35.970Z,99.16
2019-03-15T15:00:05.587Z,99.02
2019-03-15T15:02:34.685Z,98.78
2019-03-15T15:05:04.170Z,99.58
2019-03-15T15:07:34.345Z,99.54
2019-03-15T15:10:03.376Z,98.96
2019-03-15T15:12:32.500Z,99.38
2019-03-15T15:15:01.553Z,99.47
2019-03-15T15:17:31.097Z,99.49
2019-03-15T15:20:00.116Z,99.41
2019-03-15T15:22:29.267Z,99.25
2019-03-15T15:24:58.401Z,98.75
2019-03-15T15:27:27.516Z,98.10
2019-03-15T15:29:58.961Z,97.97
2019-03-15T15:32:28.097Z,97.36
2019-03-15T15:34:57.177Z,97.28
2019-03-15T15:37:26.362Z,97.96
2019-03-15T15:39:55.620Z,97.90
2019-03-15T15:42:24.755Z,98.04
2019-03-15T15:44:53.874Z,97.76
2019-03-15T15:47:23.016Z,97.87
2019-03-15T15:49:52.102Z,97.90
2019-03-15T15:52:21.217Z,97.63
2019-03-15T15:54:50.299Z,97.67
2019-03-15T15:57:19.460Z,97.44
2019-03-15T15:59:48.528Z,98.24
2019-03-15T16:02:17.757Z,98.44
2019-03-15T16:04:46.892Z,98.70
2019-03-15T16:07:15.981Z,99.31
2019-03-15T16:09:45.051Z,99.42
2019-03-15T16:12:14.863Z,99.08
2019-03-15T16:14:43.908Z,99.59
2019-03-15T16:17:13.049Z,100.00
2019-03-15T16:19:42.174Z,99.99
2019-03-15T16:22:11.367Z,100.00
2019-03-15T16:24:40.455Z,100.00
2019-03-15T16:27:09.517Z,100.00
2019-03-15T16:29:38.586Z,100.00
2019-03-15T16:32:07.722Z,100.00
2019-03-15T16:34:36.774Z,99.95
2019-03-15T16:37:05.910Z,100.00
2019-03-15T16:39:35.037Z,100.00
2019-03-15T16:42:04.101Z,100.00
2019-03-15T16:44:33.269Z,100.00
2019-03-15T16:47:02.329Z,100.00
2019-03-15T16:49:31.327Z,99.77
2019-03-15T16:52:00.318Z,99.98
2019-03-15T16:54:29.440Z,100.00
2019-03-15T16:56:58.471Z,99.91
2019-03-15T16:59:27.586Z,100.00
2019-03-15T17:01:56.723Z,100.00
2019-03-15T17:04:25.859Z,100.00
2019-03-15T17:06:55.049Z,100.00
2019-03-15T17:09:24.290Z,100.00
2019-03-15T17:11:53.364Z,100.00
2019-03-15T17:14:25.890Z,100.00
2019-03-15T17:16:55.656Z,100.00
2019-03-15T17:19:26.001Z,100.00
2019-03-15T17:21:55.116Z,100.00
2019-03-15T17:24:24.234Z,100.00
2019-03-15T17:26:53.298Z,100.00
2019-03-15T17:29:22.414Z,100.00
2019-03-15T17:31:51.491Z,100.00
2019-03-15T17:34:22.814Z,100.00
2019-03-15T17:37:05.724Z,100.00
2019-03-15T17:39:23.966Z,100.00
2019-03-15T17:41:53.040Z,100.00
2019-03-15T17:44:22.169Z,100.00
2019-03-15T17:46:51.205Z,100.00
2019-03-15T17:49:20.293Z,100.00
2019-03-15T17:51:51.131Z,100.00
2019-03-15T17:54:20.214Z,100.00
2019-03-15T17:56:49.255Z,100.00
2019-03-15T17:59:18.457Z,100.00
2019-03-15T18:01:47.487Z,100.00
2019-03-15T18:04:16.531Z,100.00
2019-03-15T18:06:45.644Z,100.00
2019-03-15T18:09:14.723Z,100.00
2019-03-15T18:11:44.783Z,100.00
2019-03-15T18:14:13.863Z,100.00
2019-03-15T18:16:42.975Z,100.00
2019-03-15T18:19:11.972Z,100.00
2019-03-15T18:21:41.006Z,100.00
2019-03-15T18:24:10.390Z,100.00
2019-03-15T18:26:40.673Z,100.00
2019-03-15T18:29:09.703Z,100.00
2019-03-15T18:31:38.855Z,100.00
2019-03-15T18:34:07.851Z,100.00
2019-03-15T18:36:36.948Z,100.00
2019-03-15T18:39:08.267Z,100.00
2019-03-15T18:41:37.474Z,100.00
2019-03-15T18:44:06.540Z,100.00
2019-03-15T18:46:35.625Z,100.00
2019-03-15T18:49:04.639Z,100.00
2019-03-15T18:51:33.693Z,100.00
2019-03-15T18:54:02.776Z,100.00
2019-03-15T18:56:31.790Z,100.00
2019-03-15T18:59:00.983Z,100.00
2019-03-15T19:01:30.139Z,100.00
2019-03-15T19:03:59.136Z,100.00
2019-03-15T19:06:28.265Z,100.00
2019-03-15T19:08:57.331Z,100.00
2019-03-15T19:11:26.411Z,100.00
2019-03-15T19:13:56.619Z,100.00
2019-03-15T19:16:27.672Z,100.00
2019-03-15T19:18:58.217Z,100.00
2019-03-15T19:21:27.360Z,100.00
2019-03-15T19:23:56.410Z,100.00
2019-03-15T19:26:28.782Z,100.00
2019-03-15T19:28:56.291Z,100.00
2019-03-15T19:31:25.386Z,100.00
2019-03-15T19:33:54.406Z,100.00
2019-03-15T19:36:23.539Z,100.00
2019-03-15T19:38:52.562Z,100.00
2019-03-15T19:41:21.614Z,100.00
2019-03-15T19:43:50.663Z,100.00
2019-03-15T19:46:19.740Z,100.00
2019-03-15T19:48:50.347Z,100.00
2019-03-15T19:51:19.435Z,100.00
2019-03-15T19:53:49.240Z,100.00
2019-03-15T19:56:18.379Z,100.00
2019-03-15T19:58:47.551Z,100.00
2019-03-15T20:01:16.920Z,100.00
2019-03-15T20:03:46.175Z,100.00
2019-03-15T20:06:17.923Z,100.00
2019-03-15T20:08:47.390Z,100.00
2019-03-15T20:11:17.138Z,100.00
2019-03-15T20:13:46.785Z,100.00
2019-03-15T20:16:16.059Z,100.00
2019-03-15T20:18:48.260Z,100.00
2019-03-15T20:21:17.673Z,100.00
2019-03-15T20:23:49.099Z,100.00
2019-03-15T20:26:18.414Z,100.00
2019-03-15T20:28:49.129Z,100.00
2019-03-15T20:31:18.384Z,100.00
2019-03-15T20:33:47.801Z,100.00
2019-03-15T20:36:16.921Z,100.00
2019-03-15T20:38:45.965Z,100.00
2019-03-15T20:41:15.546Z,100.00
2019-03-15T20:43:44.798Z,100.00
2019-03-15T20:46:16.099Z,100.00
2019-03-15T20:48:45.302Z,100.00
2019-03-15T20:51:14.388Z,100.00
2019-03-15T20:53:43.545Z,100.00
2019-03-15T20:56:12.609Z,100.00
2019-03-15T20:58:41.768Z,100.00
2019-03-15T21:01:10.874Z,100.00
2019-03-15T21:03:39.979Z,100.00
2019-03-15T21:06:11.214Z,100.00
2019-03-15T21:08:40.452Z,100.00
2019-03-15T21:11:09.793Z,100.00
2019-03-15T21:13:38.855Z,100.00
2019-03-15T21:16:07.918Z,100.00
2019-03-15T21:18:36.992Z,100.00
2019-03-15T21:21:06.182Z,100.00
2019-03-15T21:23:35.294Z,100.00
2019-03-15T21:26:04.347Z,100.00
2019-03-15T21:28:33.391Z,100.00
2019-03-15T21:31:02.411Z,100.00
2019-03-15T21:33:31.470Z,100.00
2019-03-15T21:36:02.510Z,100.00
2019-03-15T21:38:31.585Z,100.00
2019-03-15T21:41:00.679Z,100.00
2019-03-15T21:43:29.732Z,100.00
2019-03-15T21:46:05.323Z,100.00
2019-03-15T21:48:34.376Z,100.00
2019-03-15T21:51:03.487Z,100.00
2019-03-15T21:53:34.111Z,100.00
2019-03-15T21:56:03.180Z,100.00
2019-03-15T21:58:32.251Z,100.00
2019-03-15T22:01:02.839Z,100.00
2019-03-15T22:03:32.234Z,100.00
2019-03-15T22:06:02.693Z,100.00
2019-03-15T22:08:31.767Z,100.00
2019-03-15T22:11:00.884Z,100.00
2019-03-15T22:13:30.032Z,100.00
2019-03-15T22:15:59.137Z,100.00
2019-03-15T22:18:28.217Z,100.00
2019-03-15T22:20:57.272Z,100.00
2019-03-15T22:23:26.301Z,100.00
2019-03-15T22:25:55.387Z,100.00
2019-03-15T22:28:24.478Z,100.00
2019-03-15T22:30:53.841Z,100.00
2019-03-15T22:33:23.047Z,100.00
2019-03-15T22:35:52.300Z,100.00
2019-03-15T22:38:26.456Z,100.00
2019-03-15T22:40:52.178Z,100.00
2019-03-15T22:43:21.318Z,100.00
2019-03-15T22:45:50.411Z,100.00
2019-03-15T22:48:19.446Z,100.00
2019-03-15T22:50:48.807Z,100.00
2019-03-15T22:53:20.793Z,100.00
2019-03-15T22:55:49.660Z,100.00
2019-03-15T22:58:19.040Z,100.00
2019-03-15T23:00:48.835Z,100.00
2019-03-15T23:03:18.311Z,100.00
2019-03-15T23:05:50.022Z,100.00
2019-03-15T23:08:19.075Z,100.00
2019-03-15T23:10:48.218Z,100.00
2019-03-15T23:13:17.236Z,100.00
2019-03-15T23:15:46.403Z,100.00
2019-03-15T23:18:15.463Z,100.00
2019-03-15T23:20:44.688Z,100.00
2019-03-15T23:23:23.181Z,100.00
2019-03-15T23:25:45.959Z,100.00
2019-03-15T23:28:15.177Z,100.00
2019-03-15T23:30:44.342Z,100.00
2019-03-15T23:33:13.521Z,100.00
2019-03-15T23:35:53.468Z,100.00
2019-03-15T23:38:13.483Z,99.82
2019-03-15T23:40:42.578Z,100.00
2019-03-15T23:43:11.653Z,99.90
2019-03-15T23:45:40.767Z,99.32
2019-03-15T23:48:10.129Z,99.05
2019-03-15T23:50:39.276Z,98.50
2019-03-15T23:53:08.361Z,98.53
2019-03-15T23:55:37.416Z,98.54
2019-03-15T23:58:06.501Z,98.51
